Time;durP1;ratioP1;P1;durP2;ratioP2;P2;SDS_P1;SDS_P2;PMS_P1;PMS_P2;Temp;Humidity;BMP_temperature;BMP_pressure;BME280_temperature;BME280_humidity;BME280_pressure;Samples;Min_cycle;Max_cycle;Signal;HPM_P1;HPM_P2
2022/10/04 00:02:32;;;;;;;5.65;1.08;;;;;;;;;;4996998;28;20037;-76
2022/10/04 00:05:04;;;;;;;6.60;1.40;;;;;;;;;;4995678;28;20030;-76
2022/10/04 00:07:38;;;;;;;3.45;1.00;;;;;;;;;;4996221;28;20522;-76
2022/10/04 00:10:33;;;;;;;4.55;1.15;;;;;;;;;;5011546;28;20487;-75
2022/10/04 00:13:02;;;;;;;5.75;1.35;;;;;;;;;;4997042;28;20030;-75
2022/10/04 00:15:31;;;;;;;5.40;1.15;;;;;;;;;;4996314;28;20026;-75
2022/10/04 00:18:11;;;;;;;6.25;1.33;;;;;;;;;;4996536;28;20065;-75
2022/10/04 00:20:54;;;;;;;6.35;1.35;;;;;;;;;;4996150;28;20018;-76
2022/10/04 00:23:25;;;;;;;4.88;1.33;;;;;;;;;;4996463;28;20057;-75
2022/10/04 00:25:52;;;;;;;7.80;1.48;;;;;;;;;;5011350;28;20022;-75
2022/10/04 00:28:20;;;;;;;5.18;1.48;;;;;;;;;;4996208;28;20056;-75
2022/10/04 00:31:08;;;;;;;5.70;1.10;;;;;;;;;;4996013;28;20023;-76
2022/10/04 00:33:41;;;;;;;6.40;1.20;;;;;;;;;;4988046;28;20092;-76
2022/10/04 00:36:22;;;;;;;4.10;1.20;;;;;;;;;;5011038;28;20026;-76
2022/10/04 00:39:12;;;;;;;4.07;1.05;;;;;;;;;;4995837;28;20113;-76
2022/10/04 00:41:58;;;;;;;7.25;1.55;;;;;;;;;;5011012;28;20031;-76
2022/10/04 00:44:47;;;;;;;6.97;1.25;;;;;;;;;;4965707;28;20044;-76
2022/10/04 00:47:33;;;;;;;7.07;1.50;;;;;;;;;;4994508;28;20032;-76
2022/10/04 00:50:21;;;;;;;6.85;1.10;;;;;;;;;;4996037;28;20018;-76
2022/10/04 00:52:52;;;;;;;6.13;1.13;;;;;;;;;;4995701;28;20030;-76
2022/10/04 00:55:36;;;;;;;5.40;1.10;;;;;;;;;;4995959;28;20030;-75
2022/10/04 00:58:06;;;;;;;5.20;1.30;;;;;;;;;;4996132;28;20165;-76
2022/10/04 01:00:32;;;;;;;5.75;1.30;;;;;;;;;;4995468;28;20169;-76
2022/10/04 01:03:07;;;;;;;6.90;1.40;;;;;;;;;;5010495;28;20086;-76
2022/10/04 01:05:37;;;;;;;4.28;1.10;;;;;;;;;;4995798;28;20029;-77
2022/10/04 01:08:17;;;;;;;3.78;1.20;;;;;;;;;;4995537;28;20018;-76
2022/10/04 01:10:53;;;;;;;4.88;1.13;;;;;;;;;;4995667;28;20068;-76
2022/10/04 01:13:22;;;;;;;3.35;1.25;;;;;;;;;;4995247;28;20101;-76
2022/10/04 01:16:03;;;;;;;6.35;1.40;;;;;;;;;;4995279;28;20077;-76
2022/10/04 01:18:33;;;;;;;9.48;1.33;;;;;;;;;;5010282;28;20030;-76
2022/10/04 01:21:17;;;;;;;3.65;1.00;;;;;;;;;;4993832;28;20495;-76
2022/10/04 01:23:50;;;;;;;1.38;0.90;;;;;;;;;;4995272;28;20030;-75
2022/10/04 01:26:36;;;;;;;4.30;1.23;;;;;;;;;;4995651;28;20383;-75
2022/10/04 01:29:07;;;;;;;5.60;1.40;;;;;;;;;;4993861;28;20103;-75
2022/10/04 01:31:35;;;;;;;2.20;1.15;;;;;;;;;;4995175;28;20018;-75
2022/10/04 01:34:01;;;;;;;7.35;1.67;;;;;;;;;;4994073;28;20062;-75
2022/10/04 01:36:27;;;;;;;7.50;1.35;;;;;;;;;;4995157;28;20030;-76
2022/10/04 01:38:53;;;;;;;4.60;1.23;;;;;;;;;;4994781;28;20057;-75
2022/10/04 01:41:26;;;;;;;5.60;1.20;;;;;;;;;;4995058;28;20078;-76
2022/10/04 01:43:57;;;;;;;4.40;1.00;;;;;;;;;;4994887;28;20061;-76
2022/10/04 01:46:27;;;;;;;9.45;1.30;;;;;;;;;;4995132;28;20061;-76
2022/10/04 01:48:55;;;;;;;7.57;1.20;;;;;;;;;;4994731;28;20030;-76
2022/10/04 01:51:26;;;;;;;6.85;1.10;;;;;;;;;;4994664;28;20034;-77
2022/10/04 01:54:02;;;;;;;5.75;1.08;;;;;;;;;;4993478;28;20117;-77
2022/10/04 01:56:40;;;;;;;5.45;1.00;;;;;;;;;;4993911;28;20092;-77
2022/10/04 01:59:14;;;;;;;4.72;1.20;;;;;;;;;;4993233;28;20030;-77
2022/10/04 02:01:46;;;;;;;;;;;;;;;;;;4993744;28;20040;-76
2022/10/04 02:04:17;;;;;;;3.53;1.00;;;;;;;;;;5009561;28;19945;-77
2022/10/04 02:06:44;;;;;;;6.03;1.17;;;;;;;;;;4994590;28;20062;-76
2022/10/04 02:09:12;;;;;;;4.13;1.38;;;;;;;;;;4994682;28;20023;-77
2022/10/04 02:11:40;;;;;;;3.95;1.17;;;;;;;;;;4994293;28;20041;-76
2022/10/04 02:14:14;;;;;;;7.20;1.20;;;;;;;;;;4994291;28;20033;-76
2022/10/04 02:16:41;;;;;;;9.27;1.20;;;;;;;;;;4994306;28;20023;-77
2022/10/04 02:19:08;;;;;;;4.82;1.40;;;;;;;;;;4994379;28;20061;-76
2022/10/04 02:21:35;;;;;;;7.40;1.38;;;;;;;;;;4994038;28;20404;-76
2022/10/04 02:24:01;;;;;;;4.05;1.40;;;;;;;;;;4994627;28;20026;-77
2022/10/04 02:26:26;;;;;;;5.47;1.00;;;;;;;;;;4994666;28;20034;-75
2022/10/04 02:28:52;;;;;;;10.80;1.48;;;;;;;;;;4994188;28;20019;-76
2022/10/04 02:34:05;;;;;;;5.60;1.10;;;;;;;;;;4994516;28;20032;-75
2022/10/04 02:36:32;;;;;;;7.85;1.45;;;;;;;;;;4993911;28;20113;-75
2022/10/04 02:39:15;;;;;;;5.18;1.02;;;;;;;;;;4993965;28;20026;-75
2022/10/04 02:41:57;;;;;;;3.85;1.10;;;;;;;;;;4994367;28;20037;-75
2022/10/04 02:44:32;;;;;;;4.03;1.25;;;;;;;;;;4994024;28;20030;-76
2022/10/04 02:47:07;;;;;;;5.22;1.48;;;;;;;;;;4993962;28;20105;-76
2022/10/04 02:49:53;;;;;;;6.03;1.30;;;;;;;;;;4994059;28;20495;-75
2022/10/04 02:52:29;;;;;;;10.55;1.48;;;;;;;;;;4992704;28;20033;-75
2022/10/04 02:55:17;;;;;;;5.38;1.30;;;;;;;;;;5009050;28;20030;-75
2022/10/04 02:57:44;;;;;;;5.13;1.20;;;;;;;;;;4995389;28;20034;-76
2022/10/04 03:00:15;;;;;;;9.55;1.33;;;;;;;;;;4993654;28;20109;-76
2022/10/04 03:02:41;;;;;;;11.27;1.55;;;;;;;;;;4993756;28;20035;-76
2022/10/04 03:05:12;;;;;;;7.40;1.42;;;;;;;;;;4993647;28;20149;-75
2022/10/04 03:07:38;;;;;;;7.32;1.40;;;;;;;;;;4993581;28;20023;-76
2022/10/04 03:10:11;;;;;;;7.25;1.40;;;;;;;;;;4993735;28;20101;-76
2022/10/04 03:12:40;;;;;;;9.68;1.55;;;;;;;;;;4993671;28;20026;-76
2022/10/04 03:15:08;;;;;;;7.47;1.60;;;;;;;;;;4993588;28;20073;-75
2022/10/04 03:17:34;;;;;;;6.22;1.40;;;;;;;;;;4993944;28;20126;-77
2022/10/04 03:20:00;;;;;;;3.15;1.10;;;;;;;;;;5008588;28;20034;-76
2022/10/04 03:22:25;;;;;;;6.60;1.50;;;;;;;;;;4993517;28;20442;-75
2022/10/04 03:24:53;;;;;;;5.10;1.30;;;;;;;;;;4993538;28;20056;-76
2022/10/04 03:27:23;;;;;;;8.45;1.60;;;;;;;;;;4994211;28;20030;-76
2022/10/04 03:29:49;;;;;;;5.85;1.33;;;;;;;;;;5008413;28;20052;-77
2022/10/04 03:32:16;;;;;;;4.88;1.50;;;;;;;;;;4993432;28;20050;-77
2022/10/04 03:34:54;;;;;;;6.80;1.65;;;;;;;;;;4993770;28;20100;-76
2022/10/04 03:37:20;;;;;;;8.75;2.17;;;;;;;;;;4992100;28;20033;-76
2022/10/04 03:39:48;;;;;;;4.85;1.38;;;;;;;;;;4991980;28;20023;-76
2022/10/04 03:42:24;;;;;;;6.47;1.50;;;;;;;;;;4996373;28;20399;-76
2022/10/04 03:44:52;;;;;;;4.47;1.30;;;;;;;;;;4997081;28;20080;-77
2022/10/04 03:47:34;;;;;;;9.95;1.60;;;;;;;;;;4996963;28;20034;-76
2022/10/04 03:50:13;;;;;;;6.80;1.38;;;;;;;;;;4995633;28;20102;-76
2022/10/04 03:52:47;;;;;;;4.03;1.08;;;;;;;;;;4997019;28;20033;-77
2022/10/04 03:55:15;;;;;;;6.20;1.30;;;;;;;;;;4995664;28;20025;-76
2022/10/04 03:57:41;;;;;;;5.65;1.30;;;;;;;;;;4997019;28;20033;-76
2022/10/04 04:00:07;;;;;;;8.68;1.23;;;;;;;;;;4996481;28;20026;-76
2022/10/04 04:02:32;;;;;;;7.88;1.50;;;;;;;;;;5011804;28;20148;-76
2022/10/04 04:05:08;;;;;;;7.28;1.30;;;;;;;;;;5011832;28;20049;-76
2022/10/04 04:07:36;;;;;;;4.82;1.20;;;;;;;;;;4996961;28;20132;-75
2022/10/04 04:10:12;;;;;;;5.65;1.38;;;;;;;;;;5011677;28;20018;-76
2022/10/04 04:12:46;;;;;;;9.30;1.40;;;;;;;;;;4996837;28;20033;-77
2022/10/04 04:15:13;;;;;;;9.18;1.30;;;;;;;;;;4996621;28;20033;-76
2022/10/04 04:17:45;;;;;;;8.07;1.40;;;;;;;;;;4996770;28;20042;-76
2022/10/04 04:20:33;;;;;;;12.10;1.60;;;;;;;;;;4996238;28;20027;-76
2022/10/04 04:23:27;;;;;;;7.82;1.42;;;;;;;;;;4996291;28;20033;-76
2022/10/04 04:25:56;;;;;;;11.20;1.60;;;;;;;;;;4996638;28;20049;-76
2022/10/04 04:28:33;;;;;;;5.55;1.40;;;;;;;;;;4996825;28;20225;-76
2022/10/04 04:31:00;;;;;;;4.32;1.40;;;;;;;;;;4994763;28;20018;-76
2022/10/04 04:33:30;;;;;;;6.90;1.42;;;;;;;;;;4996333;28;20105;-76
2022/10/04 04:36:03;;;;;;;6.82;1.58;;;;;;;;;;4995022;28;20391;-76
2022/10/04 04:38:28;;;;;;;9.43;2.03;;;;;;;;;;4996359;28;20391;-76
2022/10/04 04:40:54;;;;;;;10.50;1.90;;;;;;;;;;4996968;28;20030;-76
2022/10/04 04:43:23;;;;;;;9.43;1.60;;;;;;;;;;4996273;28;20027;-76
2022/10/04 04:45:49;;;;;;;9.35;1.60;;;;;;;;;;4995981;28;20026;-76
2022/10/04 04:48:17;;;;;;;6.55;1.48;;;;;;;;;;4995874;28;20476;-77
2022/10/04 04:50:51;;;;;;;5.82;1.40;;;;;;;;;;4994926;28;20114;-77
2022/10/04 04:53:22;;;;;;;6.20;1.52;;;;;;;;;;4994993;28;20026;-76
2022/10/04 04:55:58;;;;;;;8.98;1.55;;;;;;;;;;4996068;28;20041;-76
2022/10/04 04:58:28;;;;;;;10.73;1.45;;;;;;;;;;4994135;28;20030;-76
2022/10/04 05:00:57;;;;;;;3.72;1.23;;;;;;;;;;4995205;28;20062;-75
2022/10/04 05:03:23;;;;;;;8.45;1.45;;;;;;;;;;4995384;28;20031;-76
2022/10/04 05:05:49;;;;;;;4.55;1.25;;;;;;;;;;4995323;28;20030;-76
2022/10/04 05:08:18;;;;;;;7.57;1.50;;;;;;;;;;4995169;28;20453;-76
2022/10/04 05:10:56;;;;;;;8.13;1.63;;;;;;;;;;4993922;28;20030;-76
2022/10/04 05:13:28;;;;;;;6.07;1.60;;;;;;;;;;4995456;28;20572;-75
2022/10/04 05:15:54;;;;;;;8.52;1.52;;;;;;;;;;4995556;28;20042;-76
2022/10/04 05:18:31;;;;;;;8.23;1.55;;;;;;;;;;4995201;28;20553;-76
2022/10/04 05:21:03;;;;;;;11.80;1.42;;;;;;;;;;4995040;28;20486;-75
2022/10/04 05:23:29;;;;;;;8.25;1.85;;;;;;;;;;4995192;28;20404;-76
2022/10/04 05:25:54;;;;;;;7.13;1.65;;;;;;;;;;4994968;28;20026;-76
2022/10/04 05:28:22;;;;;;;11.32;1.55;;;;;;;;;;4995045;28;20498;-76
2022/10/04 05:31:06;;;;;;;3.92;1.48;;;;;;;;;;4993628;28;20112;-76
2022/10/04 05:33:43;;;;;;;4.22;1.42;;;;;;;;;;4993716;28;20085;-76
2022/10/04 05:36:08;;;;;;;6.35;1.60;;;;;;;;;;4995074;28;20037;-75
2022/10/04 05:38:56;;;;;;;12.27;1.80;;;;;;;;;;5009912;28;20038;-76
2022/10/04 05:41:45;;;;;;;7.07;1.42;;;;;;;;;;4993463;28;20024;-76
2022/10/04 05:44:21;;;;;;;12.68;1.55;;;;;;;;;;5010247;28;20411;-77
2022/10/04 05:46:47;;;;;;;10.10;1.40;;;;;;;;;;4993367;28;20032;-77
2022/10/04 05:49:14;;;;;;;6.25;1.65;;;;;;;;;;4994599;28;20105;-77
2022/10/04 05:51:52;;;;;;;7.22;1.50;;;;;;;;;;4994691;28;20026;-77
2022/10/04 05:54:23;;;;;;;5.70;1.52;;;;;;;;;;4994568;28;20045;-77
2022/10/04 05:57:07;;;;;;;8.57;1.63;;;;;;;;;;4994560;28;20038;-76
2022/10/04 06:00:05;;;;;;;7.13;1.58;;;;;;;;;;4994255;28;20026;-76
2022/10/04 06:02:49;;;;;;;9.52;1.55;;;;;;;;;;4994707;28;20113;-75
2022/10/04 06:06:00;;;;;;;5.15;1.35;;;;;;;;;;4994091;28;20105;-75
2022/10/04 06:09:04;;;;;;;10.43;1.67;;;;;;;;;;4934357;29;20027;-75
2022/10/04 06:11:36;;;;;;;5.72;1.42;;;;;;;;;;4934413;29;20032;-76
2022/10/04 06:14:30;;;;;;;8.60;1.27;;;;;;;;;;4975320;28;20038;-75
2022/10/04 06:17:02;;;;;;;5.70;1.42;;;;;;;;;;4994837;28;20026;-76
2022/10/04 06:19:52;;;;;;;5.88;1.40;;;;;;;;;;4994392;28;20391;-75
2022/10/04 06:22:22;;;;;;;5.18;1.40;;;;;;;;;;5009160;28;20038;-76
2022/10/04 06:24:53;;;;;;;6.20;1.55;;;;;;;;;;5010151;28;20120;-76
2022/10/04 06:27:40;;;;;;;6.35;1.60;;;;;;;;;;4994360;28;20030;-77
2022/10/04 06:30:14;;;;;;;8.73;1.42;;;;;;;;;;4994134;28;20029;-76
2022/10/04 06:32:54;;;;;;;5.63;1.33;;;;;;;;;;4994590;28;20033;-75
2022/10/04 06:35:51;;;;;;;7.18;1.50;;;;;;;;;;5009102;28;20504;-76
2022/10/04 06:38:43;;;;;;;7.68;1.63;;;;;;;;;;4994318;28;20026;-76
2022/10/04 06:41:43;;;;;;;6.60;1.30;;;;;;;;;;4993897;28;20399;-76
2022/10/04 06:44:41;;;;;;;9.32;1.70;;;;;;;;;;4993897;28;20032;-75
2022/10/04 06:47:36;;;;;;;11.80;2.05;;;;;;;;;;4993992;28;20026;-75
2022/10/04 06:50:27;;;;;;;7.90;2.03;;;;;;;;;;4993898;28;20014;-76
2022/10/04 06:53:14;;;;;;;9.27;1.60;;;;;;;;;;4993424;28;20030;-76
2022/10/04 06:56:03;;;;;;;10.75;1.58;;;;;;;;;;4993677;28;20022;-76
2022/10/04 06:58:43;;;;;;;11.45;2.30;;;;;;;;;;5008427;28;20049;-75
2022/10/04 07:01:23;;;;;;;6.38;1.30;;;;;;;;;;4993237;28;20027;-76
2022/10/04 07:03:53;;;;;;;5.93;1.40;;;;;;;;;;4993825;28;20035;-75
2022/10/04 07:06:35;;;;;;;5.68;1.50;;;;;;;;;;5008413;28;20029;-75
2022/10/04 07:09:04;;;;;;;6.05;1.30;;;;;;;;;;4993620;28;20038;-75
2022/10/04 07:11:30;;;;;;;7.82;1.67;;;;;;;;;;4991921;28;20058;-76
2022/10/04 07:14:09;;;;;;;8.23;1.65;;;;;;;;;;4993332;28;20030;-76
2022/10/04 07:16:35;;;;;;;5.30;1.73;;;;;;;;;;4996835;28;20141;-76
2022/10/04 07:19:26;;;;;;;6.75;1.35;;;;;;;;;;4997338;28;20022;-76
2022/10/04 07:22:04;;;;;;;6.90;1.70;;;;;;;;;;4996099;28;20491;-76
2022/10/04 07:24:37;;;;;;;3.53;1.20;;;;;;;;;;4997361;28;20038;-76
2022/10/04 07:27:07;;;;;;;5.68;1.45;;;;;;;;;;5012213;28;20030;-76
2022/10/04 07:29:35;;;;;;;5.53;1.45;;;;;;;;;;4996965;28;20022;-76
2022/10/04 07:32:10;;;;;;;9.57;1.77;;;;;;;;;;4997128;28;20018;-76
2022/10/04 07:34:48;;;;;;;6.47;1.40;;;;;;;;;;4997463;28;20113;-77
2022/10/04 07:37:15;;;;;;;5.72;1.48;;;;;;;;;;4997133;28;20479;-76
2022/10/04 07:39:54;;;;;;;10.18;1.70;;;;;;;;;;4996772;28;20468;-76
2022/10/04 07:42:28;;;;;;;4.10;1.17;;;;;;;;;;5012373;28;20037;-77
2022/10/04 07:45:02;;;;;;;3.47;1.30;;;;;;;;;;4996752;28;20023;-76
2022/10/04 07:47:29;;;;;;;6.13;1.40;;;;;;;;;;4997117;28;20023;-76
2022/10/04 07:49:56;;;;;;;7.95;1.50;;;;;;;;;;4996639;28;20026;-76
2022/10/04 07:52:49;;;;;;;11.27;1.50;;;;;;;;;;4995519;28;20117;-76
2022/10/04 07:55:20;;;;;;;10.13;1.90;;;;;;;;;;5011448;28;20488;-76
2022/10/04 07:58:08;;;;;;;10.00;1.92;;;;;;;;;;4996735;28;20054;-76
2022/10/04 08:01:01;;;;;;;6.78;2.00;;;;;;;;;;4996640;28;20058;-77
2022/10/04 08:04:00;;;;;;;8.32;1.67;;;;;;;;;;4996499;28;20080;-76
2022/10/04 08:06:42;;;;;;;7.72;1.65;;;;;;;;;;4995220;28;20019;-76
2022/10/04 08:09:42;;;;;;;6.40;1.33;;;;;;;;;;4996732;28;20034;-76
2022/10/04 08:12:16;;;;;;;7.82;1.75;;;;;;;;;;4996458;28;20077;-75
2022/10/04 08:15:12;;;;;;;8.27;1.73;;;;;;;;;;4996416;28;20018;-75
2022/10/04 08:18:00;;;;;;;5.25;1.23;;;;;;;;;;4996351;28;20022;-76
2022/10/04 08:20:53;;;;;;;6.70;1.52;;;;;;;;;;4996199;28;20027;-76
2022/10/04 08:23:46;;;;;;;8.57;1.35;;;;;;;;;;4996571;28;20022;-76
2022/10/04 08:26:48;;;;;;;4.32;1.23;;;;;;;;;;4993122;28;20041;-76
2022/10/04 08:29:46;;;;;;;8.48;1.33;;;;;;;;;;5011032;28;20134;-76
2022/10/04 08:32:30;;;;;;;8.15;1.50;;;;;;;;;;4994668;28;20100;-76
2022/10/04 08:35:07;;;;;;;8.90;1.45;;;;;;;;;;5011226;28;20480;-76
2022/10/04 08:38:00;;;;;;;7.00;1.45;;;;;;;;;;4996164;28;20084;-76
2022/10/04 08:40:55;;;;;;;8.50;1.65;;;;;;;;;;4995775;28;20031;-75
2022/10/04 08:43:39;;;;;;;5.85;1.40;;;;;;;;;;4995716;28;20491;-75
2022/10/04 08:46:31;;;;;;;10.57;1.55;;;;;;;;;;4995971;28;20061;-75
2022/10/04 08:49:18;;;;;;;7.70;1.70;;;;;;;;;;4995878;28;20033;-75
2022/10/04 08:52:30;;;;;;;8.80;1.30;;;;;;;;;;4995573;28;20037;-75
2022/10/04 08:55:19;;;;;;;5.38;1.63;;;;;;;;;;4991095;28;20504;-76
2022/10/04 08:58:10;;;;;;;4.70;1.25;;;;;;;;;;4995795;28;20033;-75
2022/10/04 09:01:08;;;;;;;9.30;1.60;;;;;;;;;;4995141;28;20506;-75
2022/10/04 09:04:03;;;;;;;10.32;1.40;;;;;;;;;;4995345;28;20030;-75
2022/10/04 09:06:57;;;;;;;6.53;1.90;;;;;;;;;;5010519;28;20030;-76
2022/10/04 09:09:33;;;;;;;9.65;1.50;;;;;;;;;;4995624;28;20483;-76
2022/10/04 09:12:27;;;;;;;9.07;1.63;;;;;;;;;;4995796;28;20030;-76
2022/10/04 09:15:33;;;;;;;10.77;1.80;;;;;;;;;;4995248;28;20118;-75
2022/10/04 09:18:11;;;;;;;5.75;1.60;;;;;;;;;;5010227;28;20449;-75
2022/10/04 09:20:57;;;;;;;4.53;1.30;;;;;;;;;;4994863;28;20031;-75
2022/10/04 09:24:02;;;;;;;7.10;1.58;;;;;;;;;;4994988;28;20030;-75
2022/10/04 09:26:27;;;;;;;4.63;1.30;;;;;;;;;;4993682;28;20435;-75
2022/10/04 09:29:19;;;;;;;6.77;1.50;;;;;;;;;;5010074;28;20085;-75
2022/10/04 09:32:14;;;;;;;8.07;1.60;;;;;;;;;;4994843;28;20263;-74
2022/10/04 09:34:52;;;;;;;2.70;1.30;;;;;;;;;;4995360;28;20084;-74
2022/10/04 09:37:31;;;;;;;5.32;1.75;;;;;;;;;;4994665;28;20034;-75
2022/10/04 09:40:16;;;;;;;6.82;1.70;;;;;;;;;;4993560;28;20053;-76
2022/10/04 09:43:17;;;;;;;8.38;1.77;;;;;;;;;;4993390;28;20522;-75
2022/10/04 09:45:53;;;;;;;5.35;1.50;;;;;;;;;;4994907;28;20041;-75
2022/10/04 09:48:42;;;;;;;3.95;1.15;;;;;;;;;;4994701;28;20495;-76
2022/10/04 09:51:35;;;;;;;4.93;1.40;;;;;;;;;;4994553;28;20026;-75
2022/10/04 09:54:18;;;;;;;6.25;1.85;;;;;;;;;;4994555;28;20026;-75
2022/10/04 09:56:49;;;;;;;6.22;1.52;;;;;;;;;;4994682;28;20053;-74
2022/10/04 09:59:20;;;;;;;4.90;1.63;;;;;;;;;;4994614;28;20038;-75
2022/10/04 10:02:32;;;;;;;5.28;1.55;;;;;;;;;;4994275;28;20480;-75
2022/10/04 10:05:21;;;;;;;5.65;1.35;;;;;;;;;;4986063;28;20042;-76
2022/10/04 10:08:09;;;;;;;3.75;1.38;;;;;;;;;;4994227;28;20105;-75
2022/10/04 10:14:28;;;;;;;3.17;1.40;;;;;;;;;;4994544;28;20399;-75
2022/10/04 10:17:13;;;;;;;4.85;1.40;;;;;;;;;;4994351;28;20030;-76
2022/10/04 10:19:55;;;;;;;6.85;1.60;;;;;;;;;;4994228;28;20029;-75
2022/10/04 10:22:30;;;;;;;7.30;1.83;;;;;;;;;;4994046;28;20076;-76
2022/10/04 10:25:19;;;;;;;7.82;1.50;;;;;;;;;;5009401;28;20519;-75
2022/10/04 10:27:57;;;;;;;6.90;1.20;;;;;;;;;;4994527;28;20037;-75
2022/10/04 10:30:51;;;;;;;7.50;1.45;;;;;;;;;;4993792;28;20018;-75
2022/10/04 10:33:36;;;;;;;7.78;1.17;;;;;;;;;;4994358;28;20029;-75
2022/10/04 10:36:42;;;;;;;4.72;1.33;;;;;;;;;;4994137;28;20105;-76
2022/10/04 10:39:36;;;;;;;9.07;1.42;;;;;;;;;;4993755;28;20535;-76
2022/10/04 10:42:38;;;;;;;5.25;1.20;;;;;;;;;;4993904;28;20038;-76
2022/10/04 10:45:20;;;;;;;5.68;1.33;;;;;;;;;;4993680;28;20022;-76
2022/10/04 10:48:00;;;;;;;5.45;1.35;;;;;;;;;;4993945;28;20109;-76
2022/10/04 10:51:00;;;;;;;4.75;1.30;;;;;;;;;;4993418;28;20022;-76
2022/10/04 10:53:40;;;;;;;4.45;1.20;;;;;;;;;;4993662;28;20022;-76
2022/10/04 10:56:32;;;;;;;7.03;1.48;;;;;;;;;;4993099;28;20037;-76
2022/10/04 10:59:04;;;;;;;4.07;1.17;;;;;;;;;;4993582;28;20030;-76
2022/10/04 11:01:53;;;;;;;7.70;1.73;;;;;;;;;;4993377;28;20034;-76
2022/10/04 11:04:37;;;;;;;6.63;1.00;;;;;;;;;;4993827;28;20077;-76
2022/10/04 11:07:21;;;;;;;4.57;1.23;;;;;;;;;;5008557;28;20022;-76
2022/10/04 11:09:50;;;;;;;6.88;1.15;;;;;;;;;;4993548;28;20022;-75
2022/10/04 11:12:39;;;;;;;5.05;1.08;;;;;;;;;;4993632;28;20027;-76
2022/10/04 11:15:39;;;;;;;6.97;1.10;;;;;;;;;;4993483;28;20030;-76
2022/10/04 11:18:39;;;;;;;4.35;1.00;;;;;;;;;;4993408;28;20034;-76
2022/10/04 11:21:16;;;;;;;4.80;1.45;;;;;;;;;;4993259;28;20606;-76
2022/10/04 11:24:00;;;;;;;4.18;1.27;;;;;;;;;;4993426;28;20027;-76
2022/10/04 11:26:55;;;;;;;4.75;1.75;;;;;;;;;;4993229;28;20034;-75
2022/10/04 11:29:30;;;;;;;3.22;1.10;;;;;;;;;;5008225;28;20515;-75
2022/10/04 11:31:58;;;;;;;3.33;1.00;;;;;;;;;;4993472;28;20034;-75
2022/10/04 11:34:45;;;;;;;4.32;1.08;;;;;;;;;;5008306;28;20022;-75
2022/10/04 11:37:20;;;;;;;5.53;1.10;;;;;;;;;;4993416;28;20037;-76
2022/10/04 11:40:05;;;;;;;5.85;0.90;;;;;;;;;;4992888;28;20396;-75
2022/10/04 11:42:43;;;;;;;3.72;1.20;;;;;;;;;;4993189;28;20022;-76
2022/10/04 11:45:32;;;;;;;5.10;1.15;;;;;;;;;;4993127;28;20539;-75
2022/10/04 11:48:22;;;;;;;3.47;1.10;;;;;;;;;;4993389;28;20044;-75
2022/10/04 11:51:25;;;;;;;10.48;1.10;;;;;;;;;;4992908;28;20476;-75
2022/10/04 11:54:06;;;;;;;4.50;1.10;;;;;;;;;;4993049;28;20113;-75
2022/10/04 11:57:03;;;;;;;3.42;0.98;;;;;;;;;;5008132;28;20400;-75
2022/10/04 11:59:31;;;;;;;12.07;1.70;;;;;;;;;;4992832;28;20026;-75
2022/10/04 12:02:43;;;;;;;9.50;1.42;;;;;;;;;;4993833;28;20030;-75
2022/10/04 12:05:20;;;;;;;4.75;1.17;;;;;;;;;;4943941;28;20485;-75
2022/10/04 12:08:16;;;;;;;8.85;1.10;;;;;;;;;;4996491;28;20038;-75
2022/10/04 12:10:48;;;;;;;6.00;1.02;;;;;;;;;;4995042;28;20030;-76
2022/10/04 12:13:47;;;;;;;4.05;1.30;;;;;;;;;;4996602;28;20465;-76
2022/10/04 12:16:36;;;;;;;3.78;1.00;;;;;;;;;;4996649;28;20022;-75
2022/10/04 12:19:28;;;;;;;4.78;1.15;;;;;;;;;;4996433;28;20491;-75
2022/10/04 12:22:00;;;;;;;2.88;0.75;;;;;;;;;;4996430;28;20443;-76
2022/10/04 12:24:40;;;;;;;5.00;0.85;;;;;;;;;;4996203;28;20539;-76
2022/10/04 12:27:39;;;;;;;3.65;0.80;;;;;;;;;;5011156;28;20403;-76
2022/10/04 12:30:20;;;;;;;4.70;1.05;;;;;;;;;;4995699;28;20057;-76
2022/10/04 12:33:23;;;;;;;3.88;0.85;;;;;;;;;;4995163;28;20030;-76
2022/10/04 12:36:02;;;;;;;5.07;1.00;;;;;;;;;;4995935;28;20037;-75
2022/10/04 12:38:39;;;;;;;5.97;1.30;;;;;;;;;;4995901;28;20030;-75
2022/10/04 12:41:18;;;;;;;6.78;1.02;;;;;;;;;;4996266;28;20026;-77
2022/10/04 12:44:00;;;;;;;5.00;1.10;;;;;;;;;;4995875;28;20065;-76
2022/10/04 12:46:37;;;;;;;5.95;0.90;;;;;;;;;;4995752;28;20073;-76
2022/10/04 12:49:24;;;;;;;8.18;1.20;;;;;;;;;;4995750;28;20480;-76
2022/10/04 12:52:04;;;;;;;5.40;1.00;;;;;;;;;;5010513;28;20041;-76
2022/10/04 12:54:42;;;;;;;2.75;0.82;;;;;;;;;;4995553;28;20518;-76
2022/10/04 12:57:46;;;;;;;7.07;1.20;;;;;;;;;;4994273;28;20395;-76
2022/10/04 13:00:23;;;;;;;4.28;1.00;;;;;;;;;;4995239;28;20034;-76
2022/10/04 13:03:14;;;;;;;5.15;1.23;;;;;;;;;;4995522;28;20030;-76
2022/10/04 13:05:45;;;;;;;5.10;0.95;;;;;;;;;;4995402;28;20026;-75
2022/10/04 13:08:23;;;;;;;4.07;1.13;;;;;;;;;;5010569;28;20022;-76
2022/10/04 13:11:19;;;;;;;4.93;1.00;;;;;;;;;;4995394;28;20030;-76
2022/10/04 13:13:58;;;;;;;6.07;0.93;;;;;;;;;;5010145;28;20045;-75
2022/10/04 13:16:52;;;;;;;4.93;1.20;;;;;;;;;;4995450;28;20022;-76
2022/10/04 13:19:35;;;;;;;3.72;1.10;;;;;;;;;;4995257;28;20365;-76
2022/10/04 13:22:17;;;;;;;5.50;1.20;;;;;;;;;;4995481;28;20053;-75
2022/10/04 13:25:00;;;;;;;3.75;1.00;;;;;;;;;;4995130;28;20060;-75
2022/10/04 13:27:44;;;;;;;2.45;1.10;;;;;;;;;;4995060;28;20033;-75
2022/10/04 13:30:31;;;;;;;3.33;1.17;;;;;;;;;;4994761;28;20479;-75
2022/10/04 13:33:09;;;;;;;4.43;1.17;;;;;;;;;;4995170;28;20038;-76
2022/10/04 13:35:39;;;;;;;3.25;0.95;;;;;;;;;;4994842;28;20026;-76
2022/10/04 13:38:33;;;;;;;5.47;1.02;;;;;;;;;;4993485;28;20026;-74
2022/10/04 13:41:25;;;;;;;4.00;1.15;;;;;;;;;;4994587;28;20030;-75
2022/10/04 13:44:06;;;;;;;3.95;1.10;;;;;;;;;;4995045;28;20037;-76
2022/10/04 13:46:55;;;;;;;3.60;0.95;;;;;;;;;;4994710;28;20022;-75
2022/10/04 13:49:23;;;;;;;3.28;1.13;;;;;;;;;;4994838;28;20502;-75
2022/10/04 13:58:51;;;;;;;3.90;1.10;;;;;;;;;;4995016;28;20060;-76
2022/10/04 14:01:37;;;;;;;3.13;1.10;;;;;;;;;;4993996;28;20057;-76
2022/10/04 14:04:34;;;;;;;4.15;1.10;;;;;;;;;;5009620;28;20072;-75
2022/10/04 14:07:29;;;;;;;4.25;0.98;;;;;;;;;;4994675;28;20026;-76
2022/10/04 14:10:02;;;;;;;2.15;0.82;;;;;;;;;;4994237;28;20022;-76
2022/10/04 14:12:44;;;;;;;4.35;1.05;;;;;;;;;;4994130;28;20034;-75
2022/10/04 14:15:37;;;;;;;3.40;0.77;;;;;;;;;;4994049;28;20105;-75
2022/10/04 14:18:18;;;;;;;2.38;0.95;;;;;;;;;;4994149;28;20085;-76
2022/10/04 14:21:18;;;;;;;4.05;1.20;;;;;;;;;;4994005;28;20065;-75
2022/10/04 14:24:20;;;;;;;3.47;0.90;;;;;;;;;;4994116;28;20022;-75
2022/10/04 14:27:19;;;;;;;2.88;0.98;;;;;;;;;;4994209;28;20026;-75
2022/10/04 14:30:11;;;;;;;5.30;1.00;;;;;;;;;;4993984;28;20657;-76
2022/10/04 14:33:08;;;;;;;6.05;1.20;;;;;;;;;;4994163;28;20030;-76
2022/10/04 14:35:43;;;;;;;4.70;1.40;;;;;;;;;;4994189;28;20109;-76
2022/10/04 14:38:19;;;;;;;3.80;1.20;;;;;;;;;;4993961;28;20033;-76
2022/10/04 14:41:22;;;;;;;4.53;1.13;;;;;;;;;;4993937;28;20492;-76
2022/10/04 14:44:28;;;;;;;4.88;0.82;;;;;;;;;;4993877;28;20034;-76
2022/10/04 14:47:17;;;;;;;2.53;0.80;;;;;;;;;;4993663;28;20026;-75
2022/10/04 14:50:07;;;;;;;2.20;0.80;;;;;;;;;;4993604;28;20475;-76
2022/10/04 14:52:43;;;;;;;4.13;0.80;;;;;;;;;;4993875;28;20113;-75
2022/10/04 14:55:32;;;;;;;1.85;0.70;;;;;;;;;;4993821;28;20029;-76
2022/10/04 14:58:22;;;;;;;2.42;0.82;;;;;;;;;;4992449;28;20022;-76
2022/10/04 15:01:17;;;;;;;2.08;0.80;;;;;;;;;;5008686;28;20031;-76
2022/10/04 15:03:59;;;;;;;1.77;0.65;;;;;;;;;;4993946;28;20101;-77
2022/10/04 15:06:47;;;;;;;4.20;0.77;;;;;;;;;;5008517;28;20031;-76
2022/10/04 15:09:50;;;;;;;5.55;1.00;;;;;;;;;;4984188;28;20052;-75
2022/10/04 15:12:31;;;;;;;2.53;0.52;;;;;;;;;;4993496;28;20023;-76
2022/10/04 15:15:12;;;;;;;2.58;1.10;;;;;;;;;;4993568;28;20058;-77
2022/10/04 15:17:46;;;;;;;2.67;0.68;;;;;;;;;;5008522;28;20080;-76
2022/10/04 15:20:25;;;;;;;1.80;0.70;;;;;;;;;;4993272;28;20032;-76
2022/10/04 15:23:06;;;;;;;3.28;0.85;;;;;;;;;;5008623;28;20125;-76
2022/10/04 15:25:39;;;;;;;4.38;0.90;;;;;;;;;;4993771;28;20022;-76
2022/10/04 15:28:28;;;;;;;2.00;1.08;;;;;;;;;;4993345;28;20030;-76
2022/10/04 15:31:37;;;;;;;1.90;0.82;;;;;;;;;;4993292;28;20139;-76
2022/10/04 15:34:12;;;;;;;2.95;0.95;;;;;;;;;;4933726;29;20031;-76
2022/10/04 15:36:51;;;;;;;3.90;0.82;;;;;;;;;;4986805;28;20042;-76
2022/10/04 15:39:35;;;;;;;3.58;1.00;;;;;;;;;;4997253;28;20029;-76
2022/10/04 15:42:24;;;;;;;2.28;0.70;;;;;;;;;;4997233;28;20031;-76
2022/10/04 15:45:16;;;;;;;3.28;0.90;;;;;;;;;;4995885;28;20196;-76
2022/10/04 15:47:58;;;;;;;2.85;0.65;;;;;;;;;;4997415;28;20030;-76
2022/10/04 15:50:33;;;;;;;3.28;0.95;;;;;;;;;;4997567;28;20379;-76
2022/10/04 15:53:15;;;;;;;1.45;0.68;;;;;;;;;;4996964;28;20092;-78
2022/10/04 15:55:41;;;;;;;2.05;1.00;;;;;;;;;;4997780;28;20029;-76
2022/10/04 15:58:50;;;;;;;3.65;0.93;;;;;;;;;;4997207;28;20391;-76
2022/10/04 16:01:25;;;;;;;1.63;0.85;;;;;;;;;;4983366;28;20042;-76
2022/10/04 16:04:10;;;;;;;2.05;0.85;;;;;;;;;;4996959;28;20018;-75
2022/10/04 16:06:50;;;;;;;5.50;1.00;;;;;;;;;;4996449;28;20046;-75
2022/10/04 16:09:36;;;;;;;2.17;0.90;;;;;;;;;;5011366;28;20026;-76
2022/10/04 16:12:09;;;;;;;6.88;1.60;;;;;;;;;;5011435;28;20488;-75
2022/10/04 16:15:02;;;;;;;6.50;1.73;;;;;;;;;;4996707;28;20034;-75
2022/10/04 16:17:56;;;;;;;4.00;1.30;;;;;;;;;;5011505;28;20492;-76